sensor_id;sensor_type;location;lat;lon;timestamp;P1;durP1;ratioP1;P2;durP2;ratioP2
6288;SDS011;3177;49.880;8.836;2023-07-13T00:01:52;1.77;;;1.15;;
6288;SDS011;3177;49.880;8.836;2023-07-13T00:04:21;1.13;;;0.90;;
6288;SDS011;3177;49.880;8.836;2023-07-13T00:06:50;2.22;;;1.38;;
6288;SDS011;3177;49.880;8.836;2023-07-13T00:09:17;2.30;;;1.42;;
6288;SDS011;3177;49.880;8.836;2023-07-13T00:11:44;1.15;;;0.95;;
6288;SDS011;3177;49.880;8.836;2023-07-13T00:14:12;1.40;;;1.30;;
6288;SDS011;3177;49.880;8.836;2023-07-13T00:16:40;1.17;;;1.08;;
6288;SDS011;3177;49.880;8.836;2023-07-13T00:19:09;1.88;;;1.05;;
6288;SDS011;3177;49.880;8.836;2023-07-13T00:21:38;2.45;;;1.35;;
6288;SDS011;3177;49.880;8.836;2023-07-13T00:24:05;3.28;;;1.52;;
6288;SDS011;3177;49.880;8.836;2023-07-13T00:26:32;5.25;;;1.10;;
6288;SDS011;3177;49.880;8.836;2023-07-13T00:28:59;5.47;;;1.27;;
6288;SDS011;3177;49.880;8.836;2023-07-13T00:31:26;4.00;;;1.30;;
6288;SDS011;3177;49.880;8.836;2023-07-13T00:33:53;1.25;;;1.10;;
6288;SDS011;3177;49.880;8.836;2023-07-13T00:36:20;2.97;;;1.50;;
6288;SDS011;3177;49.880;8.836;2023-07-13T00:38:49;1.67;;;1.50;;
6288;SDS011;3177;49.880;8.836;2023-07-13T00:41:16;2.10;;;1.25;;
6288;SDS011;3177;49.880;8.836;2023-07-13T00:43:43;1.48;;;1.10;;
6288;SDS011;3177;49.880;8.836;2023-07-13T00:46:19;1.30;;;1.20;;
6288;SDS011;3177;49.880;8.836;2023-07-13T00:48:47;2.97;;;1.30;;
6288;SDS011;3177;49.880;8.836;2023-07-13T00:51:16;2.10;;;1.48;;
6288;SDS011;3177;49.880;8.836;2023-07-13T00:53:43;2.42;;;1.50;;
6288;SDS011;3177;49.880;8.836;2023-07-13T00:56:12;1.48;;;1.38;;
6288;SDS011;3177;49.880;8.836;2023-07-13T00:58:39;3.83;;;1.15;;
6288;SDS011;3177;49.880;8.836;2023-07-13T01:01:07;1.45;;;1.15;;
6288;SDS011;3177;49.880;8.836;2023-07-13T01:03:34;1.73;;;1.40;;
6288;SDS011;3177;49.880;8.836;2023-07-13T01:06:02;1.20;;;1.10;;
6288;SDS011;3177;49.880;8.836;2023-07-13T01:08:30;2.65;;;2.17;;
6288;SDS011;3177;49.880;8.836;2023-07-13T01:10:57;1.27;;;1.15;;
6288;SDS011;3177;49.880;8.836;2023-07-13T01:13:25;2.67;;;1.30;;
6288;SDS011;3177;49.880;8.836;2023-07-13T01:15:53;2.22;;;1.40;;
6288;SDS011;3177;49.880;8.836;2023-07-13T01:18:21;2.40;;;1.38;;
6288;SDS011;3177;49.880;8.836;2023-07-13T01:20:54;2.00;;;1.52;;
6288;SDS011;3177;49.880;8.836;2023-07-13T01:23:22;1.83;;;1.33;;
6288;SDS011;3177;49.880;8.836;2023-07-13T01:25:49;3.33;;;1.60;;
6288;SDS011;3177;49.880;8.836;2023-07-13T01:28:17;2.30;;;1.27;;
6288;SDS011;3177;49.880;8.836;2023-07-13T01:30:44;3.35;;;1.38;;
6288;SDS011;3177;49.880;8.836;2023-07-13T01:33:12;1.77;;;1.33;;
6288;SDS011;3177;49.880;8.836;2023-07-13T01:35:39;1.52;;;1.17;;
6288;SDS011;3177;49.880;8.836;2023-07-13T01:38:08;2.58;;;1.50;;
6288;SDS011;3177;49.880;8.836;2023-07-13T01:40:36;1.63;;;1.50;;
6288;SDS011;3177;49.880;8.836;2023-07-13T01:43:03;2.78;;;1.48;;
6288;SDS011;3177;49.880;8.836;2023-07-13T01:45:30;2.03;;;1.88;;
6288;SDS011;3177;49.880;8.836;2023-07-13T01:47:57;2.92;;;1.20;;
6288;SDS011;3177;49.880;8.836;2023-07-13T01:50:24;1.77;;;1.30;;
6288;SDS011;3177;49.880;8.836;2023-07-13T01:52:51;2.22;;;1.50;;
6288;SDS011;3177;49.880;8.836;2023-07-13T01:55:20;1.63;;;1.52;;
6288;SDS011;3177;49.880;8.836;2023-07-13T01:57:47;2.95;;;1.50;;
6288;SDS011;3177;49.880;8.836;2023-07-13T02:00:15;1.45;;;1.33;;
6288;SDS011;3177;49.880;8.836;2023-07-13T02:02:42;1.95;;;1.70;;
6288;SDS011;3177;49.880;8.836;2023-07-13T02:05:09;3.00;;;1.30;;
6288;SDS011;3177;49.880;8.836;2023-07-13T02:07:36;1.88;;;1.20;;
6288;SDS011;3177;49.880;8.836;2023-07-13T02:10:03;3.28;;;1.42;;
6288;SDS011;3177;49.880;8.836;2023-07-13T02:12:32;3.53;;;1.42;;
6288;SDS011;3177;49.880;8.836;2023-07-13T02:14:59;7.35;;;1.90;;
6288;SDS011;3177;49.880;8.836;2023-07-13T02:17:26;3.42;;;1.38;;
6288;SDS011;3177;49.880;8.836;2023-07-13T02:19:53;2.22;;;1.50;;
6288;SDS011;3177;49.880;8.836;2023-07-13T02:22:20;1.92;;;1.70;;
6288;SDS011;3177;49.880;8.836;2023-07-13T02:24:48;2.00;;;1.60;;
6288;SDS011;3177;49.880;8.836;2023-07-13T02:27:15;1.40;;;1.27;;
6288;SDS011;3177;49.880;8.836;2023-07-13T02:29:43;3.13;;;1.50;;
6288;SDS011;3177;49.880;8.836;2023-07-13T02:32:10;1.75;;;1.40;;
6288;SDS011;3177;49.880;8.836;2023-07-13T02:34:37;2.95;;;1.55;;
6288;SDS011;3177;49.880;8.836;2023-07-13T02:37:04;1.55;;;1.45;;
6288;SDS011;3177;49.880;8.836;2023-07-13T02:39:32;4.50;;;1.88;;
6288;SDS011;3177;49.880;8.836;2023-07-13T02:41:59;2.38;;;1.23;;
6288;SDS011;3177;49.880;8.836;2023-07-13T02:44:26;1.98;;;1.48;;
6288;SDS011;3177;49.880;8.836;2023-07-13T02:46:54;2.00;;;1.30;;
6288;SDS011;3177;49.880;8.836;2023-07-13T02:49:21;1.63;;;1.52;;
6288;SDS011;3177;49.880;8.836;2023-07-13T02:51:48;3.95;;;1.67;;
6288;SDS011;3177;49.880;8.836;2023-07-13T02:54:15;2.72;;;1.60;;
6288;SDS011;3177;49.880;8.836;2023-07-13T02:56:42;1.42;;;1.33;;
6288;SDS011;3177;49.880;8.836;2023-07-13T02:59:09;2.40;;;1.42;;
6288;SDS011;3177;49.880;8.836;2023-07-13T03:01:37;2.88;;;1.30;;
6288;SDS011;3177;49.880;8.836;2023-07-13T03:04:05;2.05;;;1.40;;
6288;SDS011;3177;49.880;8.836;2023-07-13T03:06:33;3.35;;;1.40;;
6288;SDS011;3177;49.880;8.836;2023-07-13T03:09:00;1.65;;;1.55;;
6288;SDS011;3177;49.880;8.836;2023-07-13T03:11:27;1.92;;;1.50;;
6288;SDS011;3177;49.880;8.836;2023-07-13T03:13:54;2.00;;;1.60;;
6288;SDS011;3177;49.880;8.836;2023-07-13T03:16:22;1.87;;;1.27;;
6288;SDS011;3177;49.880;8.836;2023-07-13T03:18:49;2.27;;;1.67;;
6288;SDS011;3177;49.880;8.836;2023-07-13T03:21:17;1.57;;;1.47;;
6288;SDS011;3177;49.880;8.836;2023-07-13T03:23:44;1.97;;;1.70;;
6288;SDS011;3177;49.880;8.836;2023-07-13T03:26:12;1.50;;;1.30;;
6288;SDS011;3177;49.880;8.836;2023-07-13T03:28:39;1.70;;;1.40;;
6288;SDS011;3177;49.880;8.836;2023-07-13T03:31:08;3.37;;;1.60;;
6288;SDS011;3177;49.880;8.836;2023-07-13T03:33:35;3.57;;;1.40;;
6288;SDS011;3177;49.880;8.836;2023-07-13T03:36:03;3.83;;;1.70;;
6288;SDS011;3177;49.880;8.836;2023-07-13T03:38:31;3.00;;;1.47;;
6288;SDS011;3177;49.880;8.836;2023-07-13T03:40:59;3.40;;;1.53;;
6288;SDS011;3177;49.880;8.836;2023-07-13T03:43:26;2.53;;;1.40;;
6288;SDS011;3177;49.880;8.836;2023-07-13T03:45:53;1.50;;;1.40;;
6288;SDS011;3177;49.880;8.836;2023-07-13T03:48:20;2.53;;;1.70;;
6288;SDS011;3177;49.880;8.836;2023-07-13T03:50:48;2.20;;;1.70;;
6288;SDS011;3177;49.880;8.836;2023-07-13T03:53:15;2.10;;;1.53;;
6288;SDS011;3177;49.880;8.836;2023-07-13T03:55:44;2.83;;;2.00;;
6288;SDS011;3177;49.880;8.836;2023-07-13T03:58:25;1.80;;;1.70;;
6288;SDS011;3177;49.880;8.836;2023-07-13T04:00:52;3.03;;;1.97;;
6288;SDS011;3177;49.880;8.836;2023-07-13T04:03:20;4.27;;;1.70;;
6288;SDS011;3177;49.880;8.836;2023-07-13T04:05:47;1.63;;;1.53;;
6288;SDS011;3177;49.880;8.836;2023-07-13T04:08:14;1.67;;;1.50;;
6288;SDS011;3177;49.880;8.836;2023-07-13T04:10:41;3.47;;;1.80;;
6288;SDS011;3177;49.880;8.836;2023-07-13T04:13:10;3.50;;;1.63;;
6288;SDS011;3177;49.880;8.836;2023-07-13T04:15:37;2.60;;;1.60;;
6288;SDS011;3177;49.880;8.836;2023-07-13T04:18:05;2.27;;;2.07;;
6288;SDS011;3177;49.880;8.836;2023-07-13T04:20:33;2.87;;;1.60;;
6288;SDS011;3177;49.880;8.836;2023-07-13T04:23:00;5.60;;;2.03;;
6288;SDS011;3177;49.880;8.836;2023-07-13T04:25:27;1.60;;;1.50;;
6288;SDS011;3177;49.880;8.836;2023-07-13T04:27:54;1.67;;;1.57;;
6288;SDS011;3177;49.880;8.836;2023-07-13T04:30:22;3.37;;;2.00;;
6288;SDS011;3177;49.880;8.836;2023-07-13T04:32:50;1.83;;;1.50;;
6288;SDS011;3177;49.880;8.836;2023-07-13T04:35:18;1.60;;;1.40;;
6288;SDS011;3177;49.880;8.836;2023-07-13T04:37:46;4.47;;;1.70;;
6288;SDS011;3177;49.880;8.836;2023-07-13T04:40:15;2.10;;;1.90;;
6288;SDS011;3177;49.880;8.836;2023-07-13T04:42:42;2.40;;;1.83;;
6288;SDS011;3177;49.880;8.836;2023-07-13T04:45:09;2.13;;;1.73;;
6288;SDS011;3177;49.880;8.836;2023-07-13T04:47:37;3.30;;;1.60;;
6288;SDS011;3177;49.880;8.836;2023-07-13T04:50:05;4.87;;;2.00;;
6288;SDS011;3177;49.880;8.836;2023-07-13T04:52:32;2.97;;;1.73;;
6288;SDS011;3177;49.880;8.836;2023-07-13T04:54:59;2.43;;;1.90;;
6288;SDS011;3177;49.880;8.836;2023-07-13T04:57:26;3.80;;;1.70;;
6288;SDS011;3177;49.880;8.836;2023-07-13T04:59:54;3.47;;;2.07;;
6288;SDS011;3177;49.880;8.836;2023-07-13T05:02:21;3.10;;;2.00;;
6288;SDS011;3177;49.880;8.836;2023-07-13T05:04:49;2.13;;;1.73;;
6288;SDS011;3177;49.880;8.836;2023-07-13T05:07:16;2.27;;;1.83;;
6288;SDS011;3177;49.880;8.836;2023-07-13T05:09:43;1.70;;;1.60;;
6288;SDS011;3177;49.880;8.836;2023-07-13T05:12:10;2.00;;;1.80;;
6288;SDS011;3177;49.880;8.836;2023-07-13T05:14:37;1.83;;;1.73;;
6288;SDS011;3177;49.880;8.836;2023-07-13T05:17:04;3.73;;;2.10;;
6288;SDS011;3177;49.880;8.836;2023-07-13T05:19:31;2.93;;;1.80;;
6288;SDS011;3177;49.880;8.836;2023-07-13T05:22:00;5.80;;;2.00;;
6288;SDS011;3177;49.880;8.836;2023-07-13T05:24:27;2.47;;;1.77;;
6288;SDS011;3177;49.880;8.836;2023-07-13T05:26:55;3.77;;;2.10;;
6288;SDS011;3177;49.880;8.836;2023-07-13T05:29:22;4.53;;;1.70;;
6288;SDS011;3177;49.880;8.836;2023-07-13T05:31:49;3.37;;;1.77;;
6288;SDS011;3177;49.880;8.836;2023-07-13T05:34:17;2.50;;;1.70;;
6288;SDS011;3177;49.880;8.836;2023-07-13T05:36:47;4.10;;;1.47;;
6288;SDS011;3177;49.880;8.836;2023-07-13T05:39:16;2.83;;;1.30;;
6288;SDS011;3177;49.880;8.836;2023-07-13T05:41:43;7.43;;;2.60;;
6288;SDS011;3177;49.880;8.836;2023-07-13T05:44:10;3.00;;;1.40;;
6288;SDS011;3177;49.880;8.836;2023-07-13T05:46:37;2.53;;;1.17;;
6288;SDS011;3177;49.880;8.836;2023-07-13T05:49:04;2.57;;;1.70;;
6288;SDS011;3177;49.880;8.836;2023-07-13T05:51:31;1.20;;;1.10;;
6288;SDS011;3177;49.880;8.836;2023-07-13T05:53:58;4.63;;;1.50;;
6288;SDS011;3177;49.880;8.836;2023-07-13T05:56:26;4.70;;;1.70;;
6288;SDS011;3177;49.880;8.836;2023-07-13T05:58:53;2.70;;;1.17;;
6288;SDS011;3177;49.880;8.836;2023-07-13T06:01:20;2.63;;;1.27;;
6288;SDS011;3177;49.880;8.836;2023-07-13T06:03:48;1.48;;;1.20;;
6288;SDS011;3177;49.880;8.836;2023-07-13T06:06:15;2.00;;;1.20;;
6288;SDS011;3177;49.880;8.836;2023-07-13T06:08:43;2.13;;;1.08;;
6288;SDS011;3177;49.880;8.836;2023-07-13T06:11:12;1.40;;;1.10;;
6288;SDS011;3177;49.880;8.836;2023-07-13T06:13:41;1.70;;;1.15;;
6288;SDS011;3177;49.880;8.836;2023-07-13T06:16:08;1.77;;;1.00;;
6288;SDS011;3177;49.880;8.836;2023-07-13T06:18:35;3.95;;;1.40;;
6288;SDS011;3177;49.880;8.836;2023-07-13T06:21:05;2.28;;;1.20;;
6288;SDS011;3177;49.880;8.836;2023-07-13T06:23:33;1.70;;;1.15;;
6288;SDS011;3177;49.880;8.836;2023-07-13T06:26:00;1.23;;;0.88;;
6288;SDS011;3177;49.880;8.836;2023-07-13T06:28:28;2.65;;;1.00;;
6288;SDS011;3177;49.880;8.836;2023-07-13T06:30:56;2.45;;;1.30;;
6288;SDS011;3177;49.880;8.836;2023-07-13T06:33:23;1.60;;;1.13;;
6288;SDS011;3177;49.880;8.836;2023-07-13T06:35:50;1.38;;;1.20;;
6288;SDS011;3177;49.880;8.836;2023-07-13T06:38:19;1.83;;;1.02;;
6288;SDS011;3177;49.880;8.836;2023-07-13T06:40:46;2.40;;;1.33;;
6288;SDS011;3177;49.880;8.836;2023-07-13T06:43:13;4.47;;;1.30;;
6288;SDS011;3177;49.880;8.836;2023-07-13T06:45:40;2.92;;;1.20;;
6288;SDS011;3177;49.880;8.836;2023-07-13T06:48:09;2.95;;;1.20;;
6288;SDS011;3177;49.880;8.836;2023-07-13T06:50:37;1.73;;;1.10;;
6288;SDS011;3177;49.880;8.836;2023-07-13T06:53:04;2.20;;;1.10;;
6288;SDS011;3177;49.880;8.836;2023-07-13T06:55:31;2.53;;;1.17;;
6288;SDS011;3177;49.880;8.836;2023-07-13T06:57:58;4.30;;;1.67;;
6288;SDS011;3177;49.880;8.836;2023-07-13T07:00:25;1.50;;;1.08;;
6288;SDS011;3177;49.880;8.836;2023-07-13T07:02:52;3.17;;;1.70;;
6288;SDS011;3177;49.880;8.836;2023-07-13T07:05:21;2.92;;;1.38;;
6288;SDS011;3177;49.880;8.836;2023-07-13T07:07:48;2.50;;;1.00;;
6288;SDS011;3177;49.880;8.836;2023-07-13T07:10:16;1.83;;;0.82;;
6288;SDS011;3177;49.880;8.836;2023-07-13T07:12:43;1.60;;;1.15;;
6288;SDS011;3177;49.880;8.836;2023-07-13T07:15:10;1.42;;;1.17;;
6288;SDS011;3177;49.880;8.836;2023-07-13T07:17:37;4.10;;;1.25;;
6288;SDS011;3177;49.880;8.836;2023-07-13T07:20:05;2.03;;;1.20;;
6288;SDS011;3177;49.880;8.836;2023-07-13T07:22:33;1.58;;;1.15;;
6288;SDS011;3177;49.880;8.836;2023-07-13T07:25:00;3.33;;;1.30;;
6288;SDS011;3177;49.880;8.836;2023-07-13T07:27:28;3.15;;;1.13;;
6288;SDS011;3177;49.880;8.836;2023-07-13T07:29:55;3.05;;;1.33;;
6288;SDS011;3177;49.880;8.836;2023-07-13T07:32:23;2.00;;;1.30;;
6288;SDS011;3177;49.880;8.836;2023-07-13T07:34:50;2.78;;;0.98;;
6288;SDS011;3177;49.880;8.836;2023-07-13T07:37:17;1.05;;;0.95;;
6288;SDS011;3177;49.880;8.836;2023-07-13T07:39:46;1.95;;;0.85;;
6288;SDS011;3177;49.880;8.836;2023-07-13T07:42:13;1.35;;;1.20;;
6288;SDS011;3177;49.880;8.836;2023-07-13T07:44:40;2.13;;;0.98;;
6288;SDS011;3177;49.880;8.836;2023-07-13T07:47:07;1.48;;;0.95;;
6288;SDS011;3177;49.880;8.836;2023-07-13T07:49:34;2.35;;;1.13;;
6288;SDS011;3177;49.880;8.836;2023-07-13T07:52:01;1.70;;;1.05;;
6288;SDS011;3177;49.880;8.836;2023-07-13T07:54:28;1.42;;;1.02;;
6288;SDS011;3177;49.880;8.836;2023-07-13T07:56:57;2.35;;;1.02;;
6288;SDS011;3177;49.880;8.836;2023-07-13T07:59:25;0.90;;;0.82;;
6288;SDS011;3177;49.880;8.836;2023-07-13T08:01:52;4.05;;;0.90;;
6288;SDS011;3177;49.880;8.836;2023-07-13T08:04:19;3.08;;;1.20;;
6288;SDS011;3177;49.880;8.836;2023-07-13T08:06:46;1.67;;;0.70;;
6288;SDS011;3177;49.880;8.836;2023-07-13T08:09:13;1.75;;;1.17;;
6288;SDS011;3177;49.880;8.836;2023-07-13T08:11:40;1.83;;;0.88;;
6288;SDS011;3177;49.880;8.836;2023-07-13T08:14:08;3.60;;;0.98;;
6288;SDS011;3177;49.880;8.836;2023-07-13T08:16:35;2.92;;;1.10;;
6288;SDS011;3177;49.880;8.836;2023-07-13T08:19:03;1.45;;;1.13;;
6288;SDS011;3177;49.880;8.836;2023-07-13T08:21:31;2.03;;;1.00;;
6288;SDS011;3177;49.880;8.836;2023-07-13T08:23:58;2.45;;;1.23;;
6288;SDS011;3177;49.880;8.836;2023-07-13T08:26:25;4.03;;;1.17;;
6288;SDS011;3177;49.880;8.836;2023-07-13T08:28:52;5.05;;;1.45;;
6288;SDS011;3177;49.880;8.836;2023-07-13T08:31:20;1.10;;;0.88;;
6288;SDS011;3177;49.880;8.836;2023-07-13T08:33:47;1.50;;;1.05;;
6288;SDS011;3177;49.880;8.836;2023-07-13T08:36:14;2.45;;;1.00;;
6288;SDS011;3177;49.880;8.836;2023-07-13T08:38:41;2.53;;;1.17;;
6288;SDS011;3177;49.880;8.836;2023-07-13T08:41:13;1.55;;;0.70;;
6288;SDS011;3177;49.880;8.836;2023-07-13T08:43:40;3.42;;;1.13;;
6288;SDS011;3177;49.880;8.836;2023-07-13T08:46:08;1.92;;;1.00;;
6288;SDS011;3177;49.880;8.836;2023-07-13T08:48:38;1.58;;;1.05;;
6288;SDS011;3177;49.880;8.836;2023-07-13T08:51:11;1.65;;;0.73;;
6288;SDS011;3177;49.880;8.836;2023-07-13T08:53:39;1.75;;;1.00;;
6288;SDS011;3177;49.880;8.836;2023-07-13T08:56:09;3.45;;;0.90;;
6288;SDS011;3177;49.880;8.836;2023-07-13T08:58:38;1.92;;;1.00;;
6288;SDS011;3177;49.880;8.836;2023-07-13T09:01:08;1.77;;;0.80;;
6288;SDS011;3177;49.880;8.836;2023-07-13T09:03:42;5.65;;;0.95;;
6288;SDS011;3177;49.880;8.836;2023-07-13T09:06:13;1.35;;;1.10;;
6288;SDS011;3177;49.880;8.836;2023-07-13T09:08:45;2.97;;;1.10;;
6288;SDS011;3177;49.880;8.836;2023-07-13T09:11:17;2.22;;;0.90;;
6288;SDS011;3177;49.880;8.836;2023-07-13T09:13:50;6.18;;;1.20;;
6288;SDS011;3177;49.880;8.836;2023-07-13T09:16:21;1.25;;;0.95;;
6288;SDS011;3177;49.880;8.836;2023-07-13T09:18:50;2.58;;;1.20;;
6288;SDS011;3177;49.880;8.836;2023-07-13T09:21:20;3.50;;;0.93;;
6288;SDS011;3177;49.880;8.836;2023-07-13T09:23:48;2.67;;;1.20;;
6288;SDS011;3177;49.880;8.836;2023-07-13T09:26:18;1.33;;;1.02;;
6288;SDS011;3177;49.880;8.836;2023-07-13T09:28:48;1.63;;;1.10;;
6288;SDS011;3177;49.880;8.836;2023-07-13T09:31:19;4.22;;;0.85;;
6288;SDS011;3177;49.880;8.836;2023-07-13T09:33:47;3.55;;;0.95;;
6288;SDS011;3177;49.880;8.836;2023-07-13T09:36:21;2.95;;;1.05;;
6288;SDS011;3177;49.880;8.836;2023-07-13T09:38:49;1.67;;;0.60;;
6288;SDS011;3177;49.880;8.836;2023-07-13T09:41:20;1.88;;;0.60;;
6288;SDS011;3177;49.880;8.836;2023-07-13T09:44:01;1.98;;;1.02;;
6288;SDS011;3177;49.880;8.836;2023-07-13T09:46:28;3.15;;;1.13;;
6288;SDS011;3177;49.880;8.836;2023-07-13T09:48:55;6.07;;;1.23;;
6288;SDS011;3177;49.880;8.836;2023-07-13T09:51:24;3.20;;;1.00;;
6288;SDS011;3177;49.880;8.836;2023-07-13T09:53:51;2.50;;;0.93;;
6288;SDS011;3177;49.880;8.836;2023-07-13T09:56:18;2.03;;;1.10;;
6288;SDS011;3177;49.880;8.836;2023-07-13T09:58:45;2.67;;;0.70;;
6288;SDS011;3177;49.880;8.836;2023-07-13T10:01:12;2.47;;;0.77;;
6288;SDS011;3177;49.880;8.836;2023-07-13T10:03:42;1.00;;;0.82;;
6288;SDS011;3177;49.880;8.836;2023-07-13T10:06:19;1.13;;;0.65;;
6288;SDS011;3177;49.880;8.836;2023-07-13T10:08:48;2.25;;;1.20;;
6288;SDS011;3177;49.880;8.836;2023-07-13T10:11:17;1.38;;;0.80;;
6288;SDS011;3177;49.880;8.836;2023-07-13T10:13:47;0.85;;;0.65;;
6288;SDS011;3177;49.880;8.836;2023-07-13T10:16:17;1.17;;;0.75;;
6288;SDS011;3177;49.880;8.836;2023-07-13T10:18:46;2.05;;;0.90;;
6288;SDS011;3177;49.880;8.836;2023-07-13T10:21:15;4.00;;;1.02;;
6288;SDS011;3177;49.880;8.836;2023-07-13T10:23:43;5.50;;;1.10;;
6288;SDS011;3177;49.880;8.836;2023-07-13T10:26:15;2.75;;;1.40;;
6288;SDS011;3177;49.880;8.836;2023-07-13T10:28:43;1.73;;;0.88;;
6288;SDS011;3177;49.880;8.836;2023-07-13T10:31:13;2.63;;;0.82;;
6288;SDS011;3177;49.880;8.836;2023-07-13T10:33:40;3.10;;;1.20;;
6288;SDS011;3177;49.880;8.836;2023-07-13T10:36:12;1.75;;;0.63;;
6288;SDS011;3177;49.880;8.836;2023-07-13T10:38:40;1.52;;;1.10;;
6288;SDS011;3177;49.880;8.836;2023-07-13T10:41:09;1.13;;;1.00;;
6288;SDS011;3177;49.880;8.836;2023-07-13T10:43:40;1.48;;;1.00;;
6288;SDS011;3177;49.880;8.836;2023-07-13T10:46:10;1.42;;;1.02;;
6288;SDS011;3177;49.880;8.836;2023-07-13T10:48:37;1.23;;;0.70;;
6288;SDS011;3177;49.880;8.836;2023-07-13T10:51:06;1.15;;;0.70;;
6288;SDS011;3177;49.880;8.836;2023-07-13T10:53:34;2.83;;;0.73;;
6288;SDS011;3177;49.880;8.836;2023-07-13T10:56:02;1.30;;;0.70;;
6288;SDS011;3177;49.880;8.836;2023-07-13T10:58:34;3.10;;;0.98;;
6288;SDS011;3177;49.880;8.836;2023-07-13T11:01:07;1.73;;;0.90;;
6288;SDS011;3177;49.880;8.836;2023-07-13T11:03:35;2.85;;;0.85;;
6288;SDS011;3177;49.880;8.836;2023-07-13T11:06:05;2.85;;;1.08;;
6288;SDS011;3177;49.880;8.836;2023-07-13T11:08:35;2.13;;;1.05;;
6288;SDS011;3177;49.880;8.836;2023-07-13T11:11:03;3.15;;;1.25;;
6288;SDS011;3177;49.880;8.836;2023-07-13T11:13:58;2.38;;;0.95;;
6288;SDS011;3177;49.880;8.836;2023-07-13T11:16:36;0.88;;;0.63;;
6288;SDS011;3177;49.880;8.836;2023-07-13T11:24:47;2.38;;;0.70;;
6288;SDS011;3177;49.880;8.836;2023-07-13T11:27:21;0.93;;;0.68;;
6288;SDS011;3177;49.880;8.836;2023-07-13T11:29:49;1.13;;;0.98;;
6288;SDS011;3177;49.880;8.836;2023-07-13T11:32:21;4.70;;;1.00;;
6288;SDS011;3177;49.880;8.836;2023-07-13T11:34:49;3.38;;;0.90;;
6288;SDS011;3177;49.880;8.836;2023-07-13T11:37:16;1.08;;;0.82;;
6288;SDS011;3177;49.880;8.836;2023-07-13T11:39:45;1.27;;;1.10;;
6288;SDS011;3177;49.880;8.836;2023-07-13T11:42:13;1.85;;;0.70;;
6288;SDS011;3177;49.880;8.836;2023-07-13T11:44:43;5.35;;;1.02;;
6288;SDS011;3177;49.880;8.836;2023-07-13T11:47:14;2.92;;;0.93;;
6288;SDS011;3177;49.880;8.836;2023-07-13T11:49:47;1.30;;;0.90;;
6288;SDS011;3177;49.880;8.836;2023-07-13T11:52:15;1.58;;;1.02;;
6288;SDS011;3177;49.880;8.836;2023-07-13T11:54:45;2.47;;;1.13;;
6288;SDS011;3177;49.880;8.836;2023-07-13T11:57:17;3.92;;;1.00;;
6288;SDS011;3177;49.880;8.836;2023-07-13T11:59:48;3.83;;;0.98;;
6288;SDS011;3177;49.880;8.836;2023-07-13T12:02:19;3.92;;;1.20;;
6288;SDS011;3177;49.880;8.836;2023-07-13T12:04:50;2.13;;;1.30;;
6288;SDS011;3177;49.880;8.836;2023-07-13T12:07:18;2.00;;;0.82;;
6288;SDS011;3177;49.880;8.836;2023-07-13T12:09:46;2.95;;;1.08;;
6288;SDS011;3177;49.880;8.836;2023-07-13T12:12:17;3.70;;;1.00;;
6288;SDS011;3177;49.880;8.836;2023-07-13T12:14:45;3.03;;;0.95;;
6288;SDS011;3177;49.880;8.836;2023-07-13T12:17:15;1.73;;;0.90;;
6288;SDS011;3177;49.880;8.836;2023-07-13T12:19:44;3.38;;;1.30;;
6288;SDS011;3177;49.880;8.836;2023-07-13T12:22:11;2.03;;;0.65;;
6288;SDS011;3177;49.880;8.836;2023-07-13T12:24:39;1.27;;;0.70;;
6288;SDS011;3177;49.880;8.836;2023-07-13T12:27:15;0.98;;;0.95;;
6288;SDS011;3177;49.880;8.836;2023-07-13T12:29:48;1.27;;;0.80;;
6288;SDS011;3177;49.880;8.836;2023-07-13T12:32:17;2.15;;;1.05;;
6288;SDS011;3177;49.880;8.836;2023-07-13T12:34:55;3.25;;;1.25;;
6288;SDS011;3177;49.880;8.836;2023-07-13T12:37:22;3.10;;;1.00;;
6288;SDS011;3177;49.880;8.836;2023-07-13T12:39:49;1.63;;;0.98;;
6288;SDS011;3177;49.880;8.836;2023-07-13T12:42:19;1.23;;;1.13;;
6288;SDS011;3177;49.880;8.836;2023-07-13T12:44:48;3.72;;;1.17;;
6288;SDS011;3177;49.880;8.836;2023-07-13T12:47:16;2.45;;;0.90;;
6288;SDS011;3177;49.880;8.836;2023-07-13T12:49:47;3.00;;;1.10;;
6288;SDS011;3177;49.880;8.836;2023-07-13T12:52:17;2.22;;;1.00;;
6288;SDS011;3177;49.880;8.836;2023-07-13T12:54:52;1.73;;;1.00;;
6288;SDS011;3177;49.880;8.836;2023-07-13T12:57:22;2.28;;;0.88;;
6288;SDS011;3177;49.880;8.836;2023-07-13T12:59:51;1.40;;;0.88;;
6288;SDS011;3177;49.880;8.836;2023-07-13T13:02:21;1.33;;;1.00;;
6288;SDS011;3177;49.880;8.836;2023-07-13T13:04:49;1.00;;;0.70;;
6288;SDS011;3177;49.880;8.836;2023-07-13T13:07:18;2.20;;;0.90;;
6288;SDS011;3177;49.880;8.836;2023-07-13T13:09:45;1.83;;;0.82;;
6288;SDS011;3177;49.880;8.836;2023-07-13T13:12:12;3.20;;;1.10;;
6288;SDS011;3177;49.880;8.836;2023-07-13T13:14:40;1.33;;;0.85;;
6288;SDS011;3177;49.880;8.836;2023-07-13T13:17:11;2.25;;;1.10;;
6288;SDS011;3177;49.880;8.836;2023-07-13T13:19:45;1.30;;;1.02;;
6288;SDS011;3177;49.880;8.836;2023-07-13T13:22:12;2.92;;;1.30;;
6288;SDS011;3177;49.880;8.836;2023-07-13T13:24:41;2.50;;;1.00;;
6288;SDS011;3177;49.880;8.836;2023-07-13T13:27:11;2.03;;;1.05;;
6288;SDS011;3177;49.880;8.836;2023-07-13T13:29:42;2.80;;;1.25;;
6288;SDS011;3177;49.880;8.836;2023-07-13T13:32:09;1.67;;;1.08;;
6288;SDS011;3177;49.880;8.836;2023-07-13T13:34:40;3.67;;;0.98;;
6288;SDS011;3177;49.880;8.836;2023-07-13T13:37:11;1.88;;;1.08;;
6288;SDS011;3177;49.880;8.836;2023-07-13T13:39:44;1.17;;;0.85;;
6288;SDS011;3177;49.880;8.836;2023-07-13T13:42:12;4.82;;;0.90;;
6288;SDS011;3177;49.880;8.836;2023-07-13T13:44:39;1.52;;;1.10;;
6288;SDS011;3177;49.880;8.836;2023-07-13T13:47:09;5.43;;;1.10;;
6288;SDS011;3177;49.880;8.836;2023-07-13T13:49:40;3.03;;;0.82;;
6288;SDS011;3177;49.880;8.836;2023-07-13T13:52:08;1.40;;;1.02;;
6288;SDS011;3177;49.880;8.836;2023-07-13T13:54:35;1.55;;;1.10;;
6288;SDS011;3177;49.880;8.836;2023-07-13T13:57:04;1.85;;;1.20;;
6288;SDS011;3177;49.880;8.836;2023-07-13T13:59:32;1.88;;;1.05;;
6288;SDS011;3177;49.880;8.836;2023-07-13T14:02:07;1.80;;;0.95;;
6288;SDS011;3177;49.880;8.836;2023-07-13T14:04:38;1.00;;;1.00;;
6288;SDS011;3177;49.880;8.836;2023-07-13T14:07:05;3.50;;;1.38;;
6288;SDS011;3177;49.880;8.836;2023-07-13T14:09:32;2.53;;;0.95;;
6288;SDS011;3177;49.880;8.836;2023-07-13T14:11:59;2.38;;;1.15;;
6288;SDS011;3177;49.880;8.836;2023-07-13T14:14:27;6.07;;;1.40;;
6288;SDS011;3177;49.880;8.836;2023-07-13T14:16:55;1.67;;;1.05;;
6288;SDS011;3177;49.880;8.836;2023-07-13T14:19:22;2.08;;;1.10;;
6288;SDS011;3177;49.880;8.836;2023-07-13T14:21:49;3.72;;;0.98;;
6288;SDS011;3177;49.880;8.836;2023-07-13T14:24:18;2.55;;;1.00;;
6288;SDS011;3177;49.880;8.836;2023-07-13T14:26:46;2.42;;;1.00;;
6288;SDS011;3177;49.880;8.836;2023-07-13T14:29:14;2.05;;;1.02;;
6288;SDS011;3177;49.880;8.836;2023-07-13T14:31:45;4.38;;;1.23;;
6288;SDS011;3177;49.880;8.836;2023-07-13T14:34:12;1.00;;;0.90;;
6288;SDS011;3177;49.880;8.836;2023-07-13T14:36:40;1.83;;;1.35;;
6288;SDS011;3177;49.880;8.836;2023-07-13T14:39:11;1.25;;;0.90;;
6288;SDS011;3177;49.880;8.836;2023-07-13T14:41:38;2.80;;;1.20;;
6288;SDS011;3177;49.880;8.836;2023-07-13T14:44:08;3.00;;;0.95;;
6288;SDS011;3177;49.880;8.836;2023-07-13T14:46:36;1.15;;;1.00;;
6288;SDS011;3177;49.880;8.836;2023-07-13T14:49:11;1.38;;;0.95;;
6288;SDS011;3177;49.880;8.836;2023-07-13T14:51:40;2.67;;;0.90;;
6288;SDS011;3177;49.880;8.836;2023-07-13T14:54:08;1.65;;;1.00;;
6288;SDS011;3177;49.880;8.836;2023-07-13T14:56:35;1.67;;;1.00;;
6288;SDS011;3177;49.880;8.836;2023-07-13T14:59:02;3.60;;;1.00;;
6288;SDS011;3177;49.880;8.836;2023-07-13T15:01:29;3.72;;;1.10;;
6288;SDS011;3177;49.880;8.836;2023-07-13T15:03:57;3.40;;;1.20;;
6288;SDS011;3177;49.880;8.836;2023-07-13T15:06:26;1.70;;;1.00;;
6288;SDS011;3177;49.880;8.836;2023-07-13T15:08:54;1.55;;;1.40;;
6288;SDS011;3177;49.880;8.836;2023-07-13T15:11:21;1.98;;;0.82;;
6288;SDS011;3177;49.880;8.836;2023-07-13T15:13:49;1.20;;;1.02;;
6288;SDS011;3177;49.880;8.836;2023-07-13T15:16:18;4.20;;;1.10;;
6288;SDS011;3177;49.880;8.836;2023-07-13T15:18:48;1.02;;;0.90;;
6288;SDS011;3177;49.880;8.836;2023-07-13T15:21:19;2.13;;;1.10;;
6288;SDS011;3177;49.880;8.836;2023-07-13T15:23:48;1.40;;;0.80;;
6288;SDS011;3177;49.880;8.836;2023-07-13T15:26:15;2.63;;;1.30;;
6288;SDS011;3177;49.880;8.836;2023-07-13T15:28:42;2.90;;;1.13;;